sensor_id;sensor_type;location;lat;lon;timestamp;pressure;altitude;pressure_sealevel;temperature;humidity
58092;BME280;43896;48.178;11.578;2023-02-24T00:01:31;95374.41;;;9.21;71.13
58092;BME280;43896;48.178;11.578;2023-02-24T00:04:02;95370.16;;;9.20;70.47
58092;BME280;43896;48.178;11.578;2023-02-24T00:06:28;95377.69;;;9.23;70.71
58092;BME280;43896;48.178;11.578;2023-02-24T00:09:01;95356.41;;;9.18;70.45
58092;BME280;43896;48.178;11.578;2023-02-24T00:11:27;95354.28;;;9.22;70.18
58092;BME280;43896;48.178;11.578;2023-02-24T00:13:52;95329.31;;;9.17;70.27
58092;BME280;43896;48.178;11.578;2023-02-24T00:16:17;95352.94;;;9.26;69.93
58092;BME280;43896;48.178;11.578;2023-02-24T00:18:44;95348.50;;;9.26;69.83
58092;BME280;43896;48.178;11.578;2023-02-24T00:21:12;95351.63;;;9.30;69.63
58092;BME280;43896;48.178;11.578;2023-02-24T00:23:39;95351.31;;;9.33;69.12
58092;BME280;43896;48.178;11.578;2023-02-24T00:26:07;95333.94;;;9.32;68.65
58092;BME280;43896;48.178;11.578;2023-02-24T00:28:33;95342.47;;;9.34;68.72
58092;BME280;43896;48.178;11.578;2023-02-24T00:31:08;95340.31;;;9.29;68.79
58092;BME280;43896;48.178;11.578;2023-02-24T00:33:34;95329.63;;;9.14;68.70
58092;BME280;43896;48.178;11.578;2023-02-24T00:36:13;95336.53;;;9.15;69.01
58092;BME280;43896;48.178;11.578;2023-02-24T00:38:40;95337.69;;;9.13;68.18
58092;BME280;43896;48.178;11.578;2023-02-24T00:41:14;95341.28;;;9.12;68.34
58092;BME280;43896;48.178;11.578;2023-02-24T00:43:41;95346.03;;;9.08;68.82
58092;BME280;43896;48.178;11.578;2023-02-24T00:46:18;95319.28;;;8.96;68.94
58092;BME280;43896;48.178;11.578;2023-02-24T00:48:48;95344.69;;;9.04;69.02
58092;BME280;43896;48.178;11.578;2023-02-24T00:51:21;95340.91;;;8.90;69.19
58092;BME280;43896;48.178;11.578;2023-02-24T00:53:49;95346.47;;;8.87;68.67
58092;BME280;43896;48.178;11.578;2023-02-24T00:56:15;95345.66;;;8.87;68.94
58092;BME280;43896;48.178;11.578;2023-02-24T00:58:41;95342.03;;;8.79;68.84
58092;BME280;43896;48.178;11.578;2023-02-24T01:01:12;95332.81;;;8.67;69.27
58092;BME280;43896;48.178;11.578;2023-02-24T01:03:38;95315.03;;;8.44;70.41
58092;BME280;43896;48.178;11.578;2023-02-24T01:06:04;95325.03;;;8.49;69.13
58092;BME280;43896;48.178;11.578;2023-02-24T01:08:31;95327.38;;;8.60;70.34
58092;BME280;43896;48.178;11.578;2023-02-24T01:11:01;95309.69;;;8.62;69.30
58092;BME280;43896;48.178;11.578;2023-02-24T01:13:45;95311.94;;;8.49;69.02
58092;BME280;43896;48.178;11.578;2023-02-24T01:16:11;95309.19;;;8.59;69.25
58092;BME280;43896;48.178;11.578;2023-02-24T01:18:39;95316.44;;;8.65;68.94
58092;BME280;43896;48.178;11.578;2023-02-24T01:21:04;95288.38;;;8.57;69.01
58092;BME280;43896;48.178;11.578;2023-02-24T01:23:29;95300.38;;;8.68;68.47
58092;BME280;43896;48.178;11.578;2023-02-24T01:25:55;95277.88;;;8.57;68.68
58092;BME280;43896;48.178;11.578;2023-02-24T01:28:25;95313.34;;;8.78;67.84
58092;BME280;43896;48.178;11.578;2023-02-24T01:30:50;95314.69;;;8.82;68.46
58092;BME280;43896;48.178;11.578;2023-02-24T01:33:16;95309.44;;;8.82;67.50
58092;BME280;43896;48.178;11.578;2023-02-24T01:35:41;95293.69;;;8.74;68.11
58092;BME280;43896;48.178;11.578;2023-02-24T01:38:06;95304.00;;;8.75;67.21
58092;BME280;43896;48.178;11.578;2023-02-24T01:40:32;95310.25;;;8.82;67.65
58092;BME280;43896;48.178;11.578;2023-02-24T01:42:57;95290.25;;;8.73;67.44
58092;BME280;43896;48.178;11.578;2023-02-24T01:45:26;95301.03;;;8.78;67.70
58092;BME280;43896;48.178;11.578;2023-02-24T01:47:56;95295.78;;;8.62;67.75
58092;BME280;43896;48.178;11.578;2023-02-24T01:50:23;95290.81;;;8.51;67.49
58092;BME280;43896;48.178;11.578;2023-02-24T01:52:52;95300.78;;;8.47;67.53
58092;BME280;43896;48.178;11.578;2023-02-24T01:55:35;95274.81;;;8.27;68.41
58092;BME280;43896;48.178;11.578;2023-02-24T01:58:07;95258.25;;;8.19;68.26
58092;BME280;43896;48.178;11.578;2023-02-24T02:00:33;95262.69;;;8.26;68.70
58092;BME280;43896;48.178;11.578;2023-02-24T02:03:25;95277.13;;;8.31;68.43
58092;BME280;43896;48.178;11.578;2023-02-24T02:05:58;95260.75;;;8.29;68.32
58092;BME280;43896;48.178;11.578;2023-02-24T02:08:25;95264.38;;;8.36;68.38
58092;BME280;43896;48.178;11.578;2023-02-24T02:10:51;95254.06;;;8.34;67.88
58092;BME280;43896;48.178;11.578;2023-02-24T02:13:24;95257.03;;;8.39;67.97
58092;BME280;43896;48.178;11.578;2023-02-24T02:18:51;95261.72;;;8.27;67.64
58092;BME280;43896;48.178;11.578;2023-02-24T02:27:09;95251.16;;;8.03;67.69
58092;BME280;43896;48.178;11.578;2023-02-24T02:35:43;95268.19;;;8.07;67.84
58092;BME280;43896;48.178;11.578;2023-02-24T02:41:41;95254.34;;;7.88;68.59
58092;BME280;43896;48.178;11.578;2023-02-24T02:46:37;95260.50;;;7.79;69.10
58092;BME280;43896;48.178;11.578;2023-02-24T02:49:17;95256.72;;;7.74;68.81
58092;BME280;43896;48.178;11.578;2023-02-24T02:51:50;95256.25;;;7.78;68.52
58092;BME280;43896;48.178;11.578;2023-02-24T02:54:24;95238.81;;;7.61;68.95
58092;BME280;43896;48.178;11.578;2023-02-24T02:57:01;95242.34;;;7.78;68.53
58092;BME280;43896;48.178;11.578;2023-02-24T02:59:31;95252.72;;;7.87;68.21
58092;BME280;43896;48.178;11.578;2023-02-24T03:02:00;95252.03;;;7.85;67.91
58092;BME280;43896;48.178;11.578;2023-02-24T03:04:39;95253.03;;;7.84;68.17
58092;BME280;43896;48.178;11.578;2023-02-24T03:07:07;95257.59;;;7.91;67.37
58092;BME280;43896;48.178;11.578;2023-02-24T03:09:39;95251.56;;;7.90;67.65
58092;BME280;43896;48.178;11.578;2023-02-24T03:12:13;95245.00;;;7.86;67.26
58092;BME280;43896;48.178;11.578;2023-02-24T03:14:48;95245.63;;;7.80;67.48
58092;BME280;43896;48.178;11.578;2023-02-24T03:17:19;95231.38;;;7.74;67.70
58092;BME280;43896;48.178;11.578;2023-02-24T03:19:49;95250.03;;;7.79;67.58
58092;BME280;43896;48.178;11.578;2023-02-24T03:22:30;95236.59;;;7.74;67.60
58092;BME280;43896;48.178;11.578;2023-02-24T03:25:00;95227.25;;;7.72;67.42
58092;BME280;43896;48.178;11.578;2023-02-24T03:27:45;95241.84;;;7.74;67.26
58092;BME280;43896;48.178;11.578;2023-02-24T03:30:42;95242.75;;;7.65;68.63
58092;BME280;43896;48.178;11.578;2023-02-24T03:33:18;95227.69;;;7.59;68.28
58092;BME280;43896;48.178;11.578;2023-02-24T03:35:44;95240.53;;;7.78;67.52
58092;BME280;43896;48.178;11.578;2023-02-24T03:38:10;95225.63;;;7.70;67.04
58092;BME280;43896;48.178;11.578;2023-02-24T03:40:38;95241.13;;;7.64;67.35
58092;BME280;43896;48.178;11.578;2023-02-24T03:43:13;95250.78;;;7.63;67.46
58092;BME280;43896;48.178;11.578;2023-02-24T03:45:41;95221.28;;;7.53;67.48
58092;BME280;43896;48.178;11.578;2023-02-24T03:48:08;95236.84;;;7.63;67.82
58092;BME280;43896;48.178;11.578;2023-02-24T03:50:34;95229.72;;;7.73;67.36
58092;BME280;43896;48.178;11.578;2023-02-24T03:53:19;95236.59;;;7.74;67.59
58092;BME280;43896;48.178;11.578;2023-02-24T04:06:59;95223.81;;;7.71;67.21
58092;BME280;43896;48.178;11.578;2023-02-24T04:09:40;95221.72;;;7.75;67.19
58092;BME280;43896;48.178;11.578;2023-02-24T04:12:17;95212.38;;;7.72;66.90
58092;BME280;43896;48.178;11.578;2023-02-24T04:17:18;95210.31;;;7.58;66.39
58092;BME280;43896;48.178;11.578;2023-02-24T04:19:47;95218.22;;;7.66;66.96
58092;BME280;43896;48.178;11.578;2023-02-24T04:22:16;95193.66;;;7.59;67.28
58092;BME280;43896;48.178;11.578;2023-02-24T04:24:45;95205.16;;;7.40;67.63
58092;BME280;43896;48.178;11.578;2023-02-24T04:27:14;95195.25;;;7.51;67.45
58092;BME280;43896;48.178;11.578;2023-02-24T04:29:43;95190.75;;;7.62;67.37
58092;BME280;43896;48.178;11.578;2023-02-24T04:32:12;95192.38;;;7.63;66.71
58092;BME280;43896;48.178;11.578;2023-02-24T04:34:39;95198.44;;;7.63;66.42
58092;BME280;43896;48.178;11.578;2023-02-24T04:37:05;95181.28;;;7.69;66.16
58092;BME280;43896;48.178;11.578;2023-02-24T04:39:31;95191.47;;;7.80;66.66
58092;BME280;43896;48.178;11.578;2023-02-24T04:41:57;95179.69;;;7.76;65.62
58092;BME280;43896;48.178;11.578;2023-02-24T04:44:23;95176.75;;;7.79;65.70
58092;BME280;43896;48.178;11.578;2023-02-24T04:46:49;95175.59;;;7.82;65.00
58092;BME280;43896;48.178;11.578;2023-02-24T04:49:16;95174.47;;;7.84;65.49
58092;BME280;43896;48.178;11.578;2023-02-24T04:51:44;95174.91;;;7.72;66.32
58092;BME280;43896;48.178;11.578;2023-02-24T04:54:17;95157.56;;;7.70;65.61
58092;BME280;43896;48.178;11.578;2023-02-24T04:56:44;95157.94;;;7.76;65.71
58092;BME280;43896;48.178;11.578;2023-02-24T04:59:12;95163.34;;;7.82;65.97
58092;BME280;43896;48.178;11.578;2023-02-24T05:01:39;95163.38;;;7.91;64.88
58092;BME280;43896;48.178;11.578;2023-02-24T05:04:06;95162.56;;;7.90;65.08
58092;BME280;43896;48.178;11.578;2023-02-24T05:06:32;95147.66;;;7.82;65.17
58092;BME280;43896;48.178;11.578;2023-02-24T05:08:57;95153.88;;;7.89;64.53
58092;BME280;43896;48.178;11.578;2023-02-24T05:11:25;95126.88;;;7.81;64.28
58092;BME280;43896;48.178;11.578;2023-02-24T05:13:51;95136.19;;;7.83;64.38
58092;BME280;43896;48.178;11.578;2023-02-24T05:16:17;95124.56;;;7.78;65.19
58092;BME280;43896;48.178;11.578;2023-02-24T05:18:44;95133.75;;;7.90;64.41
58092;BME280;43896;48.178;11.578;2023-02-24T05:21:12;95130.44;;;7.80;65.47
58092;BME280;43896;48.178;11.578;2023-02-24T05:23:56;95129.16;;;7.84;65.29
58092;BME280;43896;48.178;11.578;2023-02-24T05:26:23;95119.16;;;7.79;65.20
58092;BME280;43896;48.178;11.578;2023-02-24T05:28:55;95129.50;;;7.89;64.77
58092;BME280;43896;48.178;11.578;2023-02-24T05:31:23;95134.75;;;7.89;64.45
58092;BME280;43896;48.178;11.578;2023-02-24T05:33:52;95130.81;;;7.93;64.11
58092;BME280;43896;48.178;11.578;2023-02-24T05:36:22;95123.75;;;7.85;64.33
58092;BME280;43896;48.178;11.578;2023-02-24T05:38:52;95127.00;;;7.79;64.36
58092;BME280;43896;48.178;11.578;2023-02-24T05:41:31;95123.41;;;7.72;65.12
58092;BME280;43896;48.178;11.578;2023-02-24T05:44:07;95119.13;;;7.71;65.23
58092;BME280;43896;48.178;11.578;2023-02-24T05:46:35;95120.28;;;7.77;65.21
58092;BME280;43896;48.178;11.578;2023-02-24T05:49:04;95113.28;;;7.77;65.02
58092;BME280;43896;48.178;11.578;2023-02-24T05:51:34;95106.88;;;7.80;64.38
58092;BME280;43896;48.178;11.578;2023-02-24T05:54:01;95113.09;;;7.70;64.60
58092;BME280;43896;48.178;11.578;2023-02-24T05:56:32;95103.88;;;7.66;65.27
58092;BME280;43896;48.178;11.578;2023-02-24T05:59:00;95094.88;;;7.61;64.91
58092;BME280;43896;48.178;11.578;2023-02-24T06:01:33;95107.19;;;7.77;64.60
58092;BME280;43896;48.178;11.578;2023-02-24T06:04:01;95100.63;;;7.64;64.82
58092;BME280;43896;48.178;11.578;2023-02-24T06:06:40;95111.03;;;7.56;66.03
58092;BME280;43896;48.178;11.578;2023-02-24T06:09:14;95113.34;;;7.59;65.96
58092;BME280;43896;48.178;11.578;2023-02-24T06:11:41;95108.13;;;7.59;65.54
58092;BME280;43896;48.178;11.578;2023-02-24T06:14:08;95112.75;;;7.65;64.96
58092;BME280;43896;48.178;11.578;2023-02-24T06:16:39;95106.16;;;7.61;65.34
58092;BME280;43896;48.178;11.578;2023-02-24T06:19:04;95107.31;;;7.59;66.03
58092;BME280;43896;48.178;11.578;2023-02-24T06:21:30;95109.28;;;7.65;65.12
58092;BME280;43896;48.178;11.578;2023-02-24T06:23:57;95104.84;;;7.57;64.68
58092;BME280;43896;48.178;11.578;2023-02-24T06:26:24;95109.28;;;7.57;65.37
58092;BME280;43896;48.178;11.578;2023-02-24T06:28:55;95113.53;;;7.66;65.64
58092;BME280;43896;48.178;11.578;2023-02-24T06:31:20;95112.88;;;7.64;65.67
58092;BME280;43896;48.178;11.578;2023-02-24T06:33:46;95119.41;;;7.60;65.77
58092;BME280;43896;48.178;11.578;2023-02-24T06:36:12;95113.31;;;7.51;65.60
58092;BME280;43896;48.178;11.578;2023-02-24T06:38:39;95121.88;;;7.61;65.68
58092;BME280;43896;48.178;11.578;2023-02-24T06:41:04;95126.59;;;7.58;65.52
58092;BME280;43896;48.178;11.578;2023-02-24T06:43:36;95112.69;;;7.57;65.53
58092;BME280;43896;48.178;11.578;2023-02-24T06:46:03;95124.97;;;7.57;65.09
58092;BME280;43896;48.178;11.578;2023-02-24T06:48:30;95133.53;;;7.67;65.51
58092;BME280;43896;48.178;11.578;2023-02-24T06:50:58;95122.19;;;7.58;65.20
58092;BME280;43896;48.178;11.578;2023-02-24T06:53:24;95124.81;;;7.66;65.02
58092;BME280;43896;48.178;11.578;2023-02-24T06:55:50;95126.47;;;7.67;65.33
58092;BME280;43896;48.178;11.578;2023-02-24T06:58:18;95142.59;;;7.55;65.24
58092;BME280;43896;48.178;11.578;2023-02-24T07:00:44;95124.97;;;7.57;64.99
58092;BME280;43896;48.178;11.578;2023-02-24T07:03:22;95135.03;;;7.78;64.76
58092;BME280;43896;48.178;11.578;2023-02-24T07:05:52;95137.19;;;7.82;64.84
58092;BME280;43896;48.178;11.578;2023-02-24T07:08:36;95130.13;;;7.83;63.93
58092;BME280;43896;48.178;11.578;2023-02-24T07:11:02;95119.66;;;7.83;64.28
58092;BME280;43896;48.178;11.578;2023-02-24T07:13:30;95120.31;;;7.85;63.71
58092;BME280;43896;48.178;11.578;2023-02-24T07:15:58;95117.50;;;7.78;64.62
58092;BME280;43896;48.178;11.578;2023-02-24T07:18:24;95125.41;;;7.86;63.95
58092;BME280;43896;48.178;11.578;2023-02-24T07:20:50;95106.31;;;7.60;64.73
58092;BME280;43896;48.178;11.578;2023-02-24T07:23:16;95104.91;;;7.74;65.36
58092;BME280;43896;48.178;11.578;2023-02-24T07:25:42;95108.81;;;7.69;64.40
58092;BME280;43896;48.178;11.578;2023-02-24T07:28:13;95109.00;;;7.76;64.88
58092;BME280;43896;48.178;11.578;2023-02-24T07:30:39;95108.72;;;7.87;64.41
58092;BME280;43896;48.178;11.578;2023-02-24T07:33:06;95104.78;;;7.92;64.07
58092;BME280;43896;48.178;11.578;2023-02-24T07:35:32;95103.66;;;8.02;63.93
58092;BME280;43896;48.178;11.578;2023-02-24T07:37:58;95098.78;;;8.07;64.42
58092;BME280;43896;48.178;11.578;2023-02-24T07:40:35;95084.06;;;8.06;63.45
58092;BME280;43896;48.178;11.578;2023-02-24T07:43:00;95084.56;;;8.10;63.69
58092;BME280;43896;48.178;11.578;2023-02-24T07:45:26;95105.19;;;8.13;63.81
58092;BME280;43896;48.178;11.578;2023-02-24T07:47:51;95079.31;;;8.10;64.08
58092;BME280;43896;48.178;11.578;2023-02-24T07:50:16;95100.13;;;8.36;64.18
58092;BME280;43896;48.178;11.578;2023-02-24T07:52:44;95098.00;;;8.32;64.61
58092;BME280;43896;48.178;11.578;2023-02-24T07:55:12;95067.38;;;8.16;64.15
58092;BME280;43896;48.178;11.578;2023-02-24T07:57:37;95077.69;;;8.17;65.25
58092;BME280;43896;48.178;11.578;2023-02-24T08:00:06;95073.28;;;8.26;65.33
58092;BME280;43896;48.178;11.578;2023-02-24T08:02:43;95088.22;;;8.50;64.78
58092;BME280;43896;48.178;11.578;2023-02-24T08:05:09;95080.34;;;8.50;65.39
58092;BME280;43896;48.178;11.578;2023-02-24T08:07:34;95070.00;;;8.40;65.60
58092;BME280;43896;48.178;11.578;2023-02-24T08:09:59;95077.69;;;8.42;66.14
58092;BME280;43896;48.178;11.578;2023-02-24T08:12:38;95077.25;;;8.47;65.88
58092;BME280;43896;48.178;11.578;2023-02-24T08:15:07;95070.69;;;8.51;65.79
58092;BME280;43896;48.178;11.578;2023-02-24T08:17:41;95075.91;;;8.51;65.99
58092;BME280;43896;48.178;11.578;2023-02-24T08:20:06;95055.75;;;8.59;65.65
58092;BME280;43896;48.178;11.578;2023-02-24T08:22:38;95052.50;;;8.66;65.57
58092;BME280;43896;48.178;11.578;2023-02-24T08:25:09;95055.44;;;8.71;65.84
58092;BME280;43896;48.178;11.578;2023-02-24T08:27:42;95057.06;;;8.80;65.61
58092;BME280;43896;48.178;11.578;2023-02-24T08:30:08;95038.91;;;8.70;65.96
58092;BME280;43896;48.178;11.578;2023-02-24T08:32:45;95050.50;;;8.84;65.95
58092;BME280;43896;48.178;11.578;2023-02-24T08:35:16;95046.88;;;8.85;66.37
58092;BME280;43896;48.178;11.578;2023-02-24T08:37:47;95045.41;;;8.91;66.27
58092;BME280;43896;48.178;11.578;2023-02-24T08:40:20;95034.09;;;8.98;66.33
58092;BME280;43896;48.178;11.578;2023-02-24T08:43:00;95032.94;;;9.01;66.18
58092;BME280;43896;48.178;11.578;2023-02-24T08:48:13;95041.84;;;8.75;66.89
58092;BME280;43896;48.178;11.578;2023-02-24T08:50:53;95019.84;;;8.85;67.24
58092;BME280;43896;48.178;11.578;2023-02-24T08:53:18;95021.66;;;8.84;66.70
58092;BME280;43896;48.178;11.578;2023-02-24T08:55:45;95030.00;;;8.96;67.02
58092;BME280;43896;48.178;11.578;2023-02-24T08:58:10;95033.44;;;8.96;67.28
58092;BME280;43896;48.178;11.578;2023-02-24T09:00:43;95033.25;;;9.06;66.65
58092;BME280;43896;48.178;11.578;2023-02-24T09:03:20;95017.88;;;8.95;67.04
58092;BME280;43896;48.178;11.578;2023-02-24T09:06:06;95020.94;;;9.07;66.70
58092;BME280;43896;48.178;11.578;2023-02-24T09:08:34;95032.06;;;9.17;65.83
58092;BME280;43896;48.178;11.578;2023-02-24T09:11:05;95026.09;;;9.31;65.34
58092;BME280;43896;48.178;11.578;2023-02-24T09:13:37;95022.97;;;9.36;65.80
58092;BME280;43896;48.178;11.578;2023-02-24T09:16:08;95008.97;;;9.44;65.57
58092;BME280;43896;48.178;11.578;2023-02-24T09:18:41;95013.53;;;9.58;65.55
58092;BME280;43896;48.178;11.578;2023-02-24T09:21:15;95002.44;;;9.71;64.98
58092;BME280;43896;48.178;11.578;2023-02-24T09:24:01;95012.16;;;9.93;64.55
58092;BME280;43896;48.178;11.578;2023-02-24T09:26:34;94994.78;;;9.92;64.28
58092;BME280;43896;48.178;11.578;2023-02-24T09:29:11;95001.13;;;10.21;64.12
58092;BME280;43896;48.178;11.578;2023-02-24T09:31:56;94991.75;;;10.65;62.64
58092;BME280;43896;48.178;11.578;2023-02-24T09:34:35;94999.94;;;11.00;62.47
58092;BME280;43896;48.178;11.578;2023-02-24T09:37:03;94983.06;;;11.09;61.62
58092;BME280;43896;48.178;11.578;2023-02-24T09:39:34;94979.78;;;11.07;61.80
58092;BME280;43896;48.178;11.578;2023-02-24T09:42:20;94987.59;;;10.85;62.85
58092;BME280;43896;48.178;11.578;2023-02-24T09:44:51;94982.59;;;11.20;61.89
58092;BME280;43896;48.178;11.578;2023-02-24T09:52:45;94968.09;;;12.19;59.08
58092;BME280;43896;48.178;11.578;2023-02-24T10:01:19;94947.91;;;12.61;57.87
58092;BME280;43896;48.178;11.578;2023-02-24T10:03:53;94948.41;;;13.13;57.89
58092;BME280;43896;48.178;11.578;2023-02-24T10:06:33;94945.44;;;13.23;56.88
58092;BME280;43896;48.178;11.578;2023-02-24T10:09:19;94935.44;;;13.18;56.43
58092;BME280;43896;48.178;11.578;2023-02-24T10:11:53;94939.25;;;13.44;55.97
58092;BME280;43896;48.178;11.578;2023-02-24T10:14:24;94943.38;;;13.66;54.88
58092;BME280;43896;48.178;11.578;2023-02-24T10:16:53;94926.88;;;13.58;54.97
58092;BME280;43896;48.178;11.578;2023-02-24T10:19:45;94924.75;;;14.15;54.20
58092;BME280;43896;48.178;11.578;2023-02-24T10:22:29;94917.63;;;14.49;53.50
58092;BME280;43896;48.178;11.578;2023-02-24T10:25:13;94911.44;;;15.02;52.22
58092;BME280;43896;48.178;11.578;2023-02-24T10:27:51;94914.66;;;15.10;51.44
58092;BME280;43896;48.178;11.578;2023-02-24T10:33:24;94906.63;;;14.72;52.08
58092;BME280;43896;48.178;11.578;2023-02-24T10:36:03;94912.56;;;14.27;52.36
58092;BME280;43896;48.178;11.578;2023-02-24T10:38:33;94905.63;;;14.06;52.92
58092;BME280;43896;48.178;11.578;2023-02-24T10:40:59;94900.13;;;13.81;53.54
58092;BME280;43896;48.178;11.578;2023-02-24T10:43:31;94907.56;;;13.50;54.79
58092;BME280;43896;48.178;11.578;2023-02-24T10:46:00;94898.47;;;13.18;55.47
58092;BME280;43896;48.178;11.578;2023-02-24T10:48:34;94891.50;;;12.97;55.81
58092;BME280;43896;48.178;11.578;2023-02-24T10:51:17;94900.25;;;13.04;56.17
58092;BME280;43896;48.178;11.578;2023-02-24T10:53:46;94909.50;;;12.87;56.02
58092;BME280;43896;48.178;11.578;2023-02-24T10:56:18;94899.44;;;12.62;56.85
58092;BME280;43896;48.178;11.578;2023-02-24T10:59:14;94887.06;;;12.28;56.99
58092;BME280;43896;48.178;11.578;2023-02-24T11:02:01;94869.91;;;12.17;58.20
58092;BME280;43896;48.178;11.578;2023-02-24T11:04:36;94883.56;;;12.27;58.21
58092;BME280;43896;48.178;11.578;2023-02-24T11:07:24;94872.03;;;12.28;57.95
58092;BME280;43896;48.178;11.578;2023-02-24T11:10:09;94864.84;;;12.44;57.51
58092;BME280;43896;48.178;11.578;2023-02-24T11:12:44;94868.50;;;12.49;57.75
58092;BME280;43896;48.178;11.578;2023-02-24T11:18:23;94852.78;;;12.63;56.65
58092;BME280;43896;48.178;11.578;2023-02-24T11:21:10;94854.78;;;12.61;56.50
58092;BME280;43896;48.178;11.578;2023-02-24T11:23:52;94849.22;;;12.42;57.52
58092;BME280;43896;48.178;11.578;2023-02-24T11:26:33;94841.03;;;12.65;57.08
58092;BME280;43896;48.178;11.578;2023-02-24T11:29:04;94837.25;;;12.81;56.22
58092;BME280;43896;48.178;11.578;2023-02-24T11:32:05;94829.22;;;12.61;56.87
58092;BME280;43896;48.178;11.578;2023-02-24T11:34:56;94801.94;;;12.41;56.84
58092;BME280;43896;48.178;11.578;2023-02-24T11:37:59;94823.19;;;12.67;56.82
58092;BME280;43896;48.178;11.578;2023-02-24T11:40:29;94813.59;;;12.60;56.52
58092;BME280;43896;48.178;11.578;2023-02-24T11:43:11;94805.22;;;12.49;57.27
58092;BME280;43896;48.178;11.578;2023-02-24T11:45:43;94803.41;;;12.50;57.49
58092;BME280;43896;48.178;11.578;2023-02-24T11:48:29;94795.66;;;12.42;57.43
58092;BME280;43896;48.178;11.578;2023-02-24T11:51:06;94797.03;;;12.37;57.69
58092;BME280;43896;48.178;11.578;2023-02-24T11:53:47;94800.41;;;12.18;60.71
58092;BME280;43896;48.178;11.578;2023-02-24T11:56:27;94791.81;;;11.31;64.42
58092;BME280;43896;48.178;11.578;2023-02-24T11:59:13;94788.28;;;11.02;66.29
58092;BME280;43896;48.178;11.578;2023-02-24T12:01:54;94742.97;;;11.07;64.94
58092;BME280;43896;48.178;11.578;2023-02-24T12:04:26;94777.69;;;11.17;65.62
58092;BME280;43896;48.178;11.578;2023-02-24T12:07:00;94768.19;;;11.16;64.84
58092;BME280;43896;48.178;11.578;2023-02-24T12:09:37;94760.94;;;11.47;64.03
58092;BME280;43896;48.178;11.578;2023-02-24T12:12:10;94775.13;;;11.02;65.58
58092;BME280;43896;48.178;11.578;2023-02-24T12:14:56;94762.09;;;10.94;65.72
58092;BME280;43896;48.178;11.578;2023-02-24T12:17:35;94754.16;;;11.09;64.73
58092;BME280;43896;48.178;11.578;2023-02-24T12:20:05;94760.97;;;11.25;63.98
58092;BME280;43896;48.178;11.578;2023-02-24T12:22:42;94749.97;;;11.43;63.32
58092;BME280;43896;48.178;11.578;2023-02-24T12:25:12;94758.75;;;11.50;63.16
58092;BME280;43896;48.178;11.578;2023-02-24T12:30:24;94744.50;;;11.66;62.70
58092;BME280;43896;48.178;11.578;2023-02-24T12:33:26;94735.19;;;11.70;63.58
58092;BME280;43896;48.178;11.578;2023-02-24T12:36:11;94740.88;;;11.74;62.74
58092;BME280;43896;48.178;11.578;2023-02-24T12:39:08;94730.13;;;11.69;63.50
58092;BME280;43896;48.178;11.578;2023-02-24T12:41:38;94721.69;;;11.80;63.03
58092;BME280;43896;48.178;11.578;2023-02-24T12:44:22;94722.84;;;11.71;61.02
58092;BME280;43896;48.178;11.578;2023-02-24T12:47:00;94716.31;;;11.67;61.56
58092;BME280;43896;48.178;11.578;2023-02-24T12:55:10;94711.38;;;11.50;61.17
58092;BME280;43896;48.178;11.578;2023-02-24T13:00:15;94710.47;;;11.43;61.45
58092;BME280;43896;48.178;11.578;2023-02-24T13:03:07;94714.50;;;11.39;62.18
58092;BME280;43896;48.178;11.578;2023-02-24T13:05:50;94706.38;;;11.34;62.59
58092;BME280;43896;48.178;11.578;2023-02-24T13:11:16;94696.56;;;11.21;63.05
58092;BME280;43896;48.178;11.578;2023-02-24T13:16:47;94672.28;;;11.25;62.76
58092;BME280;43896;48.178;11.578;2023-02-24T13:22:07;94690.50;;;11.49;62.38
58092;BME280;43896;48.178;11.578;2023-02-24T13:25:09;94682.16;;;11.45;63.41
58092;BME280;43896;48.178;11.578;2023-02-24T13:27:38;94670.97;;;11.36;63.74
58092;BME280;43896;48.178;11.578;2023-02-24T13:32:45;94669.25;;;11.50;63.69
58092;BME280;43896;48.178;11.578;2023-02-24T13:37:41;94647.78;;;11.25;64.57
58092;BME280;43896;48.178;11.578;2023-02-24T13:42:59;94634.06;;;11.30;64.69
58092;BME280;43896;48.178;11.578;2023-02-24T13:51:00;94648.28;;;11.35;64.48
58092;BME280;43896;48.178;11.578;2023-02-24T14:01:30;94641.56;;;11.33;63.92
58092;BME280;43896;48.178;11.578;2023-02-24T14:04:21;94638.94;;;11.33;64.21
58092;BME280;43896;48.178;11.578;2023-02-24T14:06:53;94649.28;;;11.06;65.04
58092;BME280;43896;48.178;11.578;2023-02-24T14:09:25;94640.91;;;11.24;64.83
58092;BME280;43896;48.178;11.578;2023-02-24T14:12:14;94641.44;;;11.13;65.17
58092;BME280;43896;48.178;11.578;2023-02-24T14:14:44;94623.66;;;10.93;65.74
58092;BME280;43896;48.178;11.578;2023-02-24T14:17:27;94629.47;;;11.10;65.23
58092;BME280;43896;48.178;11.578;2023-02-24T14:20:19;94623.47;;;10.95;65.32
58092;BME280;43896;48.178;11.578;2023-02-24T14:22:55;94621.56;;;11.10;65.17
58092;BME280;43896;48.178;11.578;2023-02-24T14:25:24;94616.91;;;11.05;65.03
58092;BME280;43896;48.178;11.578;2023-02-24T14:27:51;94623.41;;;11.10;65.33
58092;BME280;43896;48.178;11.578;2023-02-24T14:30:27;94613.44;;;11.05;65.50
58092;BME280;43896;48.178;11.578;2023-02-24T14:32:55;94617.31;;;11.09;65.40
58092;BME280;43896;48.178;11.578;2023-02-24T14:35:31;94621.31;;;11.05;65.39
58092;BME280;43896;48.178;11.578;2023-02-24T14:37:57;94603.44;;;10.94;65.10
58092;BME280;43896;48.178;11.578;2023-02-24T14:40:23;94616.19;;;10.97;65.70
58092;BME280;43896;48.178;11.578;2023-02-24T14:42:50;94613.28;;;10.85;66.16
58092;BME280;43896;48.178;11.578;2023-02-24T14:45:22;94611.91;;;10.89;66.22
58092;BME280;43896;48.178;11.578;2023-02-24T14:47:51;94613.13;;;10.93;65.81
58092;BME280;43896;48.178;11.578;2023-02-24T14:50:19;94608.84;;;10.85;66.78
58092;BME280;43896;48.178;11.578;2023-02-24T14:52:50;94605.22;;;10.86;66.62
58092;BME280;43896;48.178;11.578;2023-02-24T14:55:23;94606.41;;;10.84;66.82
58092;BME280;43896;48.178;11.578;2023-02-24T14:58:10;94589.44;;;10.65;66.96
58092;BME280;43896;48.178;11.578;2023-02-24T15:00:41;94590.38;;;10.79;67.21